sensor_id;sensor_type;location;lat;lon;timestamp;pressure;altitude;pressure_sealevel;temperature;humidity
69980;BME280;57318;56.232;43.944;2022-12-24T00:00:22;98363.41;;;1.24;98.44
69980;BME280;57318;56.232;43.944;2022-12-24T00:02:49;98375.56;;;1.25;98.25
69980;BME280;57318;56.232;43.944;2022-12-24T00:05:15;98358.84;;;1.28;97.90
69980;BME280;57318;56.232;43.944;2022-12-24T00:07:40;98382.31;;;1.29;98.12
69980;BME280;57318;56.232;43.944;2022-12-24T00:10:07;98376.13;;;1.30;97.93
69980;BME280;57318;56.232;43.944;2022-12-24T00:12:32;98404.84;;;1.32;97.95
69980;BME280;57318;56.232;43.944;2022-12-24T00:14:58;98379.72;;;1.29;97.71
69980;BME280;57318;56.232;43.944;2022-12-24T00:17:23;98376.22;;;1.29;97.80
69980;BME280;57318;56.232;43.944;2022-12-24T00:19:49;98410.16;;;1.30;98.15
69980;BME280;57318;56.232;43.944;2022-12-24T00:22:15;98392.78;;;1.29;98.37
69980;BME280;57318;56.232;43.944;2022-12-24T00:24:40;98380.28;;;1.34;98.10
69980;BME280;57318;56.232;43.944;2022-12-24T00:27:06;98388.13;;;1.34;98.35
69980;BME280;57318;56.232;43.944;2022-12-24T00:29:32;98375.78;;;1.36;97.93
69980;BME280;57318;56.232;43.944;2022-12-24T00:31:58;98391.47;;;1.36;98.04
69980;BME280;57318;56.232;43.944;2022-12-24T00:34:25;98372.41;;;1.34;98.02
69980;BME280;57318;56.232;43.944;2022-12-24T00:36:50;98371.41;;;1.37;97.83
69980;BME280;57318;56.232;43.944;2022-12-24T00:39:16;98384.41;;;1.38;97.99
69980;BME280;57318;56.232;43.944;2022-12-24T00:41:42;98382.69;;;1.37;97.90
69980;BME280;57318;56.232;43.944;2022-12-24T00:44:08;98402.59;;;1.40;97.77
69980;BME280;57318;56.232;43.944;2022-12-24T00:46:38;98374.75;;;1.39;97.83
69980;BME280;57318;56.232;43.944;2022-12-24T00:49:05;98386.88;;;1.40;97.92
69980;BME280;57318;56.232;43.944;2022-12-24T00:51:32;98379.72;;;1.43;98.00
69980;BME280;57318;56.232;43.944;2022-12-24T00:53:58;98382.34;;;1.43;97.55
69980;BME280;57318;56.232;43.944;2022-12-24T00:56:23;98396.44;;;1.41;97.50
69980;BME280;57318;56.232;43.944;2022-12-24T00:58:49;98413.94;;;1.40;97.39
69980;BME280;57318;56.232;43.944;2022-12-24T01:01:15;98381.66;;;1.40;97.65
69980;BME280;57318;56.232;43.944;2022-12-24T01:03:41;98395.59;;;1.40;98.06
69980;BME280;57318;56.232;43.944;2022-12-24T01:06:11;98390.28;;;1.42;97.79
69980;BME280;57318;56.232;43.944;2022-12-24T01:08:37;98384.28;;;1.40;97.80
69980;BME280;57318;56.232;43.944;2022-12-24T01:11:04;98398.13;;;1.42;97.64
69980;BME280;57318;56.232;43.944;2022-12-24T01:13:30;98410.19;;;1.44;97.68
69980;BME280;57318;56.232;43.944;2022-12-24T01:15:56;98415.41;;;1.44;97.87
69980;BME280;57318;56.232;43.944;2022-12-24T01:18:22;98412.72;;;1.46;97.71
69980;BME280;57318;56.232;43.944;2022-12-24T01:21:00;98398.78;;;1.46;97.97
69980;BME280;57318;56.232;43.944;2022-12-24T01:23:27;98413.56;;;1.47;97.92
69980;BME280;57318;56.232;43.944;2022-12-24T01:25:53;98412.72;;;1.46;97.75
69980;BME280;57318;56.232;43.944;2022-12-24T01:28:20;98417.03;;;1.47;98.03
69980;BME280;57318;56.232;43.944;2022-12-24T01:30:46;98430.19;;;1.46;98.14
69980;BME280;57318;56.232;43.944;2022-12-24T01:33:12;98419.00;;;1.43;98.33
69980;BME280;57318;56.232;43.944;2022-12-24T01:35:42;98411.97;;;1.44;97.88
69980;BME280;57318;56.232;43.944;2022-12-24T01:38:08;98417.13;;;1.46;98.10
69980;BME280;57318;56.232;43.944;2022-12-24T01:40:40;98402.25;;;1.46;98.10
69980;BME280;57318;56.232;43.944;2022-12-24T01:43:26;98427.59;;;1.46;97.77
69980;BME280;57318;56.232;43.944;2022-12-24T01:50:46;98429.28;;;1.47;98.01
69980;BME280;57318;56.232;43.944;2022-12-24T01:53:13;98429.28;;;1.47;97.91
69980;BME280;57318;56.232;43.944;2022-12-24T01:55:40;98454.50;;;1.48;98.16
69980;BME280;57318;56.232;43.944;2022-12-24T01:58:06;98435.25;;;1.49;97.69
69980;BME280;57318;56.232;43.944;2022-12-24T02:00:32;98454.50;;;1.48;97.73
69980;BME280;57318;56.232;43.944;2022-12-24T02:02:58;98424.13;;;1.45;97.64
69980;BME280;57318;56.232;43.944;2022-12-24T02:05:39;98431.13;;;1.44;97.83
69980;BME280;57318;56.232;43.944;2022-12-24T02:08:07;98429.47;;;1.43;98.01
69980;BME280;57318;56.232;43.944;2022-12-24T02:10:33;98444.31;;;1.43;98.38
69980;BME280;57318;56.232;43.944;2022-12-24T02:12:59;98435.53;;;1.44;98.03
69980;BME280;57318;56.232;43.944;2022-12-24T02:27:31;98452.06;;;1.44;98.48
69980;BME280;57318;56.232;43.944;2022-12-24T02:30:10;98453.75;;;1.46;98.29
69980;BME280;57318;56.232;43.944;2022-12-24T02:32:54;98455.63;;;1.43;98.01
69980;BME280;57318;56.232;43.944;2022-12-24T02:38:23;98466.03;;;1.45;98.29
69980;BME280;57318;56.232;43.944;2022-12-24T02:41:15;98466.03;;;1.45;98.68
69980;BME280;57318;56.232;43.944;2022-12-24T02:43:44;98465.16;;;1.44;98.35
69980;BME280;57318;56.232;43.944;2022-12-24T02:46:24;98466.09;;;1.43;98.43
69980;BME280;57318;56.232;43.944;2022-12-24T02:48:52;98481.91;;;1.42;98.32
69980;BME280;57318;56.232;43.944;2022-12-24T02:51:22;98480.13;;;1.42;98.78
69980;BME280;57318;56.232;43.944;2022-12-24T02:53:48;98481.03;;;1.41;98.67
69980;BME280;57318;56.232;43.944;2022-12-24T03:02:23;98474.31;;;1.37;98.70
69980;BME280;57318;56.232;43.944;2022-12-24T03:04:30;98471.69;;;1.37;98.80
69980;BME280;57318;56.232;43.944;2022-12-24T03:07:19;98489.28;;;1.35;98.91
69980;BME280;57318;56.232;43.944;2022-12-24T03:15:23;98496.44;;;1.32;99.33
69980;BME280;57318;56.232;43.944;2022-12-24T03:17:52;98496.34;;;1.33;98.99
69980;BME280;57318;56.232;43.944;2022-12-24T03:20:25;98491.28;;;1.30;99.12
69980;BME280;57318;56.232;43.944;2022-12-24T03:22:51;98489.53;;;1.31;99.35
69980;BME280;57318;56.232;43.944;2022-12-24T03:25:17;98505.31;;;1.29;99.59
69980;BME280;57318;56.232;43.944;2022-12-24T03:27:45;98495.69;;;1.30;99.48
69980;BME280;57318;56.232;43.944;2022-12-24T03:30:12;98498.22;;;1.31;99.37
69980;BME280;57318;56.232;43.944;2022-12-24T03:32:39;98505.25;;;1.31;99.56
69980;BME280;57318;56.232;43.944;2022-12-24T03:35:06;98496.63;;;1.29;99.25
69980;BME280;57318;56.232;43.944;2022-12-24T03:37:31;98497.56;;;1.28;99.16
69980;BME280;57318;56.232;43.944;2022-12-24T03:39:57;98511.66;;;1.25;99.25
69980;BME280;57318;56.232;43.944;2022-12-24T03:42:23;98505.59;;;1.24;99.88
69980;BME280;57318;56.232;43.944;2022-12-24T03:44:48;98502.97;;;1.24;99.56
69980;BME280;57318;56.232;43.944;2022-12-24T03:47:14;98503.88;;;1.23;99.68
69980;BME280;57318;56.232;43.944;2022-12-24T03:49:40;98502.88;;;1.26;100.00
69980;BME280;57318;56.232;43.944;2022-12-24T03:52:05;98505.50;;;1.26;99.80
69980;BME280;57318;56.232;43.944;2022-12-24T03:54:31;98512.56;;;1.24;100.00
69980;BME280;57318;56.232;43.944;2022-12-24T03:56:57;98509.78;;;1.27;99.62
69980;BME280;57318;56.232;43.944;2022-12-24T03:59:22;98515.97;;;1.26;99.64
69980;BME280;57318;56.232;43.944;2022-12-24T04:01:48;98527.44;;;1.23;99.89
69980;BME280;57318;56.232;43.944;2022-12-24T04:04:14;98519.69;;;1.22;99.94
69980;BME280;57318;56.232;43.944;2022-12-24T04:06:40;98517.06;;;1.22;99.96
69980;BME280;57318;56.232;43.944;2022-12-24T04:09:05;98514.34;;;1.23;100.00
69980;BME280;57318;56.232;43.944;2022-12-24T04:11:31;98521.19;;;1.26;100.00
69980;BME280;57318;56.232;43.944;2022-12-24T04:13:57;98527.44;;;1.23;99.83
69980;BME280;57318;56.232;43.944;2022-12-24T04:16:23;98518.66;;;1.24;99.99
69980;BME280;57318;56.232;43.944;2022-12-24T04:18:49;98518.84;;;1.21;100.00
69980;BME280;57318;56.232;43.944;2022-12-24T04:21:15;98522.28;;;1.22;100.00
69980;BME280;57318;56.232;43.944;2022-12-24T04:23:41;98515.38;;;1.21;100.00
69980;BME280;57318;56.232;43.944;2022-12-24T04:26:09;98523.22;;;1.21;100.00
69980;BME280;57318;56.232;43.944;2022-12-24T04:28:36;98524.16;;;1.20;99.96
69980;BME280;57318;56.232;43.944;2022-12-24T04:31:11;98542.56;;;1.18;100.00
69980;BME280;57318;56.232;43.944;2022-12-24T04:33:37;98544.22;;;1.19;100.00
69980;BME280;57318;56.232;43.944;2022-12-24T04:36:03;98534.63;;;1.20;100.00
69980;BME280;57318;56.232;43.944;2022-12-24T04:38:30;98546.84;;;1.19;99.99
69980;BME280;57318;56.232;43.944;2022-12-24T04:41:06;98539.88;;;1.20;100.00
69980;BME280;57318;56.232;43.944;2022-12-24T04:43:32;98547.72;;;1.20;99.98
69980;BME280;57318;56.232;43.944;2022-12-24T04:46:12;98549.56;;;1.18;100.00
69980;BME280;57318;56.232;43.944;2022-12-24T04:48:44;98543.41;;;1.19;100.00
69980;BME280;57318;56.232;43.944;2022-12-24T04:51:10;98542.56;;;1.18;99.83
69980;BME280;57318;56.232;43.944;2022-12-24T04:53:37;98554.69;;;1.19;100.00
69980;BME280;57318;56.232;43.944;2022-12-24T04:56:03;98545.19;;;1.18;99.94
69980;BME280;57318;56.232;43.944;2022-12-24T04:58:31;98540.78;;;1.19;100.00
69980;BME280;57318;56.232;43.944;2022-12-24T05:01:05;98551.25;;;1.19;100.00
69980;BME280;57318;56.232;43.944;2022-12-24T05:03:31;98554.78;;;1.18;100.00
69980;BME280;57318;56.232;43.944;2022-12-24T05:06:05;98554.88;;;1.16;100.00
69980;BME280;57318;56.232;43.944;2022-12-24T05:08:32;98570.50;;;1.18;100.00
69980;BME280;57318;56.232;43.944;2022-12-24T05:11:00;98570.50;;;1.18;100.00
69980;BME280;57318;56.232;43.944;2022-12-24T05:13:26;98571.34;;;1.18;100.00
69980;BME280;57318;56.232;43.944;2022-12-24T05:15:53;98566.13;;;1.18;100.00
69980;BME280;57318;56.232;43.944;2022-12-24T05:18:19;98582.81;;;1.16;100.00
69980;BME280;57318;56.232;43.944;2022-12-24T05:20:45;98580.13;;;1.17;100.00
69980;BME280;57318;56.232;43.944;2022-12-24T05:23:22;98574.06;;;1.17;100.00
69980;BME280;57318;56.232;43.944;2022-12-24T05:28:52;98591.50;;;1.16;100.00
69980;BME280;57318;56.232;43.944;2022-12-24T05:31:20;98585.53;;;1.14;99.81
69980;BME280;57318;56.232;43.944;2022-12-24T05:33:46;98589.75;;;1.17;99.90
69980;BME280;57318;56.232;43.944;2022-12-24T05:36:12;98588.88;;;1.16;100.00
69980;BME280;57318;56.232;43.944;2022-12-24T05:38:38;98597.78;;;1.14;100.00
69980;BME280;57318;56.232;43.944;2022-12-24T05:41:04;98588.97;;;1.15;100.00
69980;BME280;57318;56.232;43.944;2022-12-24T05:43:29;98588.13;;;1.14;100.00
69980;BME280;57318;56.232;43.944;2022-12-24T05:46:00;98590.75;;;1.14;100.00
69980;BME280;57318;56.232;43.944;2022-12-24T05:48:26;98586.53;;;1.12;99.81
69980;BME280;57318;56.232;43.944;2022-12-24T05:50:52;98589.13;;;1.12;100.00
69980;BME280;57318;56.232;43.944;2022-12-24T05:53:18;98593.47;;;1.13;100.00
69980;BME280;57318;56.232;43.944;2022-12-24T05:55:44;98599.28;;;1.18;100.00
69980;BME280;57318;56.232;43.944;2022-12-24T05:58:10;98591.50;;;1.16;99.93
69980;BME280;57318;56.232;43.944;2022-12-24T06:00:36;98607.19;;;1.16;100.00
69980;BME280;57318;56.232;43.944;2022-12-24T06:03:01;98607.97;;;1.18;100.00
69980;BME280;57318;56.232;43.944;2022-12-24T06:05:27;98600.97;;;1.19;100.00
69980;BME280;57318;56.232;43.944;2022-12-24T06:07:53;98607.13;;;1.18;100.00
69980;BME280;57318;56.232;43.944;2022-12-24T06:10:18;98606.28;;;1.17;100.00
69980;BME280;57318;56.232;43.944;2022-12-24T06:12:44;98607.13;;;1.18;100.00
69980;BME280;57318;56.232;43.944;2022-12-24T06:15:10;98614.06;;;1.19;100.00
69980;BME280;57318;56.232;43.944;2022-12-24T06:17:36;98618.38;;;1.20;100.00
69980;BME280;57318;56.232;43.944;2022-12-24T06:20:03;98611.34;;;1.20;100.00
69980;BME280;57318;56.232;43.944;2022-12-24T06:22:29;98612.19;;;1.21;100.00
69980;BME280;57318;56.232;43.944;2022-12-24T06:24:55;98618.28;;;1.21;100.00
69980;BME280;57318;56.232;43.944;2022-12-24T06:27:20;98625.09;;;1.24;99.97
69980;BME280;57318;56.232;43.944;2022-12-24T06:29:46;98618.19;;;1.23;100.00
69980;BME280;57318;56.232;43.944;2022-12-24T06:32:11;98624.19;;;1.25;100.00
69980;BME280;57318;56.232;43.944;2022-12-24T06:34:37;98615.50;;;1.24;100.00
69980;BME280;57318;56.232;43.944;2022-12-24T06:37:02;98608.47;;;1.25;99.93
69980;BME280;57318;56.232;43.944;2022-12-24T06:39:28;98618.94;;;1.25;99.98
69980;BME280;57318;56.232;43.944;2022-12-24T06:41:54;98624.19;;;1.25;99.95
69980;BME280;57318;56.232;43.944;2022-12-24T06:44:19;98619.69;;;1.27;99.98
69980;BME280;57318;56.232;43.944;2022-12-24T06:46:45;98628.41;;;1.28;100.00
69980;BME280;57318;56.232;43.944;2022-12-24T06:49:10;98616.91;;;1.30;100.00
69980;BME280;57318;56.232;43.944;2022-12-24T06:51:36;98616.09;;;1.30;99.98
69980;BME280;57318;56.232;43.944;2022-12-24T06:54:03;98613.47;;;1.30;99.98
69980;BME280;57318;56.232;43.944;2022-12-24T06:56:28;98619.44;;;1.32;99.99
69980;BME280;57318;56.232;43.944;2022-12-24T06:58:54;98623.00;;;1.31;99.92
69980;BME280;57318;56.232;43.944;2022-12-24T07:01:20;98626.47;;;1.31;99.74
69980;BME280;57318;56.232;43.944;2022-12-24T07:03:46;98640.47;;;1.30;99.89
69980;BME280;57318;56.232;43.944;2022-12-24T07:06:17;98628.34;;;1.29;100.00
69980;BME280;57318;56.232;43.944;2022-12-24T07:08:43;98629.25;;;1.28;100.00
69980;BME280;57318;56.232;43.944;2022-12-24T07:11:09;98631.88;;;1.28;99.90
69980;BME280;57318;56.232;43.944;2022-12-24T07:13:35;98628.41;;;1.28;99.58
69980;BME280;57318;56.232;43.944;2022-12-24T07:16:02;98645.78;;;1.29;99.78
69980;BME280;57318;56.232;43.944;2022-12-24T07:18:28;98637.03;;;1.30;99.94
69980;BME280;57318;56.232;43.944;2022-12-24T07:20:54;98630.94;;;1.29;99.48
69980;BME280;57318;56.232;43.944;2022-12-24T07:23:20;98625.72;;;1.29;99.96
69980;BME280;57318;56.232;43.944;2022-12-24T07:25:46;98630.09;;;1.29;99.99
69980;BME280;57318;56.232;43.944;2022-12-24T07:28:11;98618.78;;;1.28;99.79
69980;BME280;57318;56.232;43.944;2022-12-24T07:30:37;98626.72;;;1.26;99.84
69980;BME280;57318;56.232;43.944;2022-12-24T07:33:02;98626.63;;;1.28;99.73
69980;BME280;57318;56.232;43.944;2022-12-24T07:35:28;98618.69;;;1.30;99.74
69980;BME280;57318;56.232;43.944;2022-12-24T07:37:53;98624.03;;;1.28;99.75
69980;BME280;57318;56.232;43.944;2022-12-24T07:40:19;98622.25;;;1.29;99.49
69980;BME280;57318;56.232;43.944;2022-12-24T07:42:45;98620.47;;;1.29;99.87
69980;BME280;57318;56.232;43.944;2022-12-24T07:45:10;98628.25;;;1.31;99.33
69980;BME280;57318;56.232;43.944;2022-12-24T07:47:36;98626.47;;;1.31;99.66
69980;BME280;57318;56.232;43.944;2022-12-24T07:50:03;98623.00;;;1.31;99.55
69980;BME280;57318;56.232;43.944;2022-12-24T07:52:29;98629.00;;;1.33;99.41
69980;BME280;57318;56.232;43.944;2022-12-24T07:54:55;98614.13;;;1.33;99.77
69980;BME280;57318;56.232;43.944;2022-12-24T07:57:20;98619.53;;;1.30;99.67
69980;BME280;57318;56.232;43.944;2022-12-24T07:59:46;98617.00;;;1.29;99.41
69980;BME280;57318;56.232;43.944;2022-12-24T08:02:11;98614.38;;;1.29;99.45
69980;BME280;57318;56.232;43.944;2022-12-24T08:04:37;98630.09;;;1.29;99.71
69980;BME280;57318;56.232;43.944;2022-12-24T08:07:04;98631.88;;;1.28;99.68
69980;BME280;57318;56.232;43.944;2022-12-24T08:09:33;98624.03;;;1.28;99.27
69980;BME280;57318;56.232;43.944;2022-12-24T08:11:59;98625.88;;;1.26;99.65
69980;BME280;57318;56.232;43.944;2022-12-24T08:14:30;98626.06;;;1.23;99.41
69980;BME280;57318;56.232;43.944;2022-12-24T08:16:56;98619.94;;;1.22;99.45
69980;BME280;57318;56.232;43.944;2022-12-24T08:19:22;98622.66;;;1.21;99.44
69980;BME280;57318;56.232;43.944;2022-12-24T08:21:48;98625.28;;;1.21;99.71
69980;BME280;57318;56.232;43.944;2022-12-24T08:24:14;98621.75;;;1.22;99.65
69980;BME280;57318;56.232;43.944;2022-12-24T08:26:40;98621.75;;;1.22;100.00
69980;BME280;57318;56.232;43.944;2022-12-24T08:29:06;98620.81;;;1.23;99.82
69980;BME280;57318;56.232;43.944;2022-12-24T08:31:32;98631.28;;;1.23;99.66
69980;BME280;57318;56.232;43.944;2022-12-24T08:34:05;98618.19;;;1.23;99.60
69980;BME280;57318;56.232;43.944;2022-12-24T08:36:32;98620.91;;;1.21;99.54
69980;BME280;57318;56.232;43.944;2022-12-24T08:38:58;98622.66;;;1.21;99.53
69980;BME280;57318;56.232;43.944;2022-12-24T08:41:29;98613.22;;;1.18;99.87
69980;BME280;57318;56.232;43.944;2022-12-24T08:43:55;98619.28;;;1.19;99.48
69980;BME280;57318;56.232;43.944;2022-12-24T08:46:21;98619.28;;;1.19;99.50
69980;BME280;57318;56.232;43.944;2022-12-24T08:48:46;98619.28;;;1.19;99.42
69980;BME280;57318;56.232;43.944;2022-12-24T08:51:12;98618.53;;;1.17;99.79
69980;BME280;57318;56.232;43.944;2022-12-24T08:53:38;98618.44;;;1.18;99.67
69980;BME280;57318;56.232;43.944;2022-12-24T08:56:05;98608.81;;;1.19;99.73
69980;BME280;57318;56.232;43.944;2022-12-24T08:58:31;98614.88;;;1.19;99.63
69980;BME280;57318;56.232;43.944;2022-12-24T09:00:58;98610.69;;;1.17;99.66
69980;BME280;57318;56.232;43.944;2022-12-24T09:03:24;98609.81;;;1.16;99.59
69980;BME280;57318;56.232;43.944;2022-12-24T09:05:49;98601.88;;;1.18;99.64
69980;BME280;57318;56.232;43.944;2022-12-24T09:08:15;98598.34;;;1.19;99.98
69980;BME280;57318;56.232;43.944;2022-12-24T09:10:41;98608.81;;;1.19;99.51
69980;BME280;57318;56.232;43.944;2022-12-24T09:13:06;98599.09;;;1.21;99.53
69980;BME280;57318;56.232;43.944;2022-12-24T09:15:32;98596.66;;;1.18;99.34
69980;BME280;57318;56.232;43.944;2022-12-24T09:17:57;98597.69;;;1.15;99.62
69980;BME280;57318;56.232;43.944;2022-12-24T09:20:23;98592.38;;;1.17;99.64
69980;BME280;57318;56.232;43.944;2022-12-24T09:22:49;98600.22;;;1.17;99.74
69980;BME280;57318;56.232;43.944;2022-12-24T09:25:14;98600.22;;;1.17;99.52
69980;BME280;57318;56.232;43.944;2022-12-24T09:27:40;98611.59;;;1.16;99.60
69980;BME280;57318;56.232;43.944;2022-12-24T09:30:06;98604.66;;;1.15;99.62
69980;BME280;57318;56.232;43.944;2022-12-24T09:32:32;98602.06;;;1.15;99.73
69980;BME280;57318;56.232;43.944;2022-12-24T09:34:59;98600.38;;;1.14;99.53
69980;BME280;57318;56.232;43.944;2022-12-24T09:37:24;98609.91;;;1.15;99.41
69980;BME280;57318;56.232;43.944;2022-12-24T09:39:50;98610.06;;;1.12;99.33
69980;BME280;57318;56.232;43.944;2022-12-24T09:44:57;98603.09;;;1.12;99.19
69980;BME280;57318;56.232;43.944;2022-12-24T09:47:36;98590.09;;;1.11;99.40
69980;BME280;57318;56.232;43.944;2022-12-24T09:50:20;98585.84;;;1.08;99.33
69980;BME280;57318;56.232;43.944;2022-12-24T09:52:49;98592.78;;;1.09;99.49
69980;BME280;57318;56.232;43.944;2022-12-24T09:55:32;98591.97;;;1.08;99.73
69980;BME280;57318;56.232;43.944;2022-12-24T09:57:59;98592.13;;;1.05;99.59
69980;BME280;57318;56.232;43.944;2022-12-24T10:00:36;98591.41;;;1.02;99.71
69980;BME280;57318;56.232;43.944;2022-12-24T10:03:22;98588.72;;;1.03;99.63
69980;BME280;57318;56.232;43.944;2022-12-24T10:11:21;98566.72;;;0.92;99.77
69980;BME280;57318;56.232;43.944;2022-12-24T10:22:26;98562.06;;;0.81;100.00
69980;BME280;57318;56.232;43.944;2022-12-24T10:27:37;98560.53;;;0.77;100.00
69980;BME280;57318;56.232;43.944;2022-12-24T10:30:15;98561.56;;;0.74;99.94
69980;BME280;57318;56.232;43.944;2022-12-24T10:32:41;98561.72;;;0.71;100.00
69980;BME280;57318;56.232;43.944;2022-12-24T10:37:39;98547.88;;;0.69;100.00
69980;BME280;57318;56.232;43.944;2022-12-24T10:40:05;98568.09;;;0.65;100.00
69980;BME280;57318;56.232;43.944;2022-12-24T10:42:40;98540.25;;;0.64;100.00
69980;BME280;57318;56.232;43.944;2022-12-24T10:45:14;98551.59;;;0.65;99.90
69980;BME280;57318;56.232;43.944;2022-12-24T10:47:41;98570.13;;;0.60;99.69
69980;BME280;57318;56.232;43.944;2022-12-24T10:50:21;98569.34;;;0.58;99.78
69980;BME280;57318;56.232;43.944;2022-12-24T10:52:50;98559.09;;;0.55;100.00
69980;BME280;57318;56.232;43.944;2022-12-24T10:55:22;98572.31;;;0.52;100.00
69980;BME280;57318;56.232;43.944;2022-12-24T10:58:02;98559.25;;;0.52;99.90
69980;BME280;57318;56.232;43.944;2022-12-24T11:00:29;98565.56;;;0.48;99.97
69980;BME280;57318;56.232;43.944;2022-12-24T11:03:35;98540.41;;;0.45;99.98
69980;BME280;57318;56.232;43.944;2022-12-24T11:06:11;98553.41;;;0.47;100.00
69980;BME280;57318;56.232;43.944;2022-12-24T11:08:40;98543.97;;;0.44;100.00
69980;BME280;57318;56.232;43.944;2022-12-24T11:11:11;98546.59;;;0.44;100.00
69980;BME280;57318;56.232;43.944;2022-12-24T11:13:43;98559.97;;;0.38;100.00
69980;BME280;57318;56.232;43.944;2022-12-24T11:18:52;98545.44;;;0.32;99.83
69980;BME280;57318;56.232;43.944;2022-12-24T11:21:35;98544.78;;;0.29;99.65
69980;BME280;57318;56.232;43.944;2022-12-24T11:26:37;98563.31;;;0.24;99.88
69980;BME280;57318;56.232;43.944;2022-12-24T11:31:38;98566.16;;;0.20;100.00
69980;BME280;57318;56.232;43.944;2022-12-24T11:36:50;98568.16;;;0.14;100.00
69980;BME280;57318;56.232;43.944;2022-12-24T11:39:22;98584.81;;;0.12;100.00
69980;BME280;57318;56.232;43.944;2022-12-24T11:41:48;98558.69;;;0.12;100.00
69980;BME280;57318;56.232;43.944;2022-12-24T11:44:27;98568.31;;;0.11;100.00
69980;BME280;57318;56.232;43.944;2022-12-24T11:46:54;98580.66;;;0.08;99.93
69980;BME280;57318;56.232;43.944;2022-12-24T11:49:27;98573.63;;;0.10;99.72
69980;BME280;57318;56.232;43.944;2022-12-24T11:54:42;98565.88;;;0.08;99.82
69980;BME280;57318;56.232;43.944;2022-12-24T11:57:12;98570.16;;;0.09;99.70
69980;BME280;57318;56.232;43.944;2022-12-24T11:59:44;98567.59;;;0.08;99.80
69980;BME280;57318;56.232;43.944;2022-12-24T12:02:18;98560.72;;;0.07;100.00
69980;BME280;57318;56.232;43.944;2022-12-24T12:04:50;98559.84;;;0.06;99.65
69980;BME280;57318;56.232;43.944;2022-12-24T12:07:23;98556.41;;;0.06;99.69
69980;BME280;57318;56.232;43.944;2022-12-24T12:09:54;98550.28;;;0.07;99.41
69980;BME280;57318;56.232;43.944;2022-12-24T12:12:25;98552.09;;;0.05;99.43
69980;BME280;57318;56.232;43.944;2022-12-24T12:14:56;98552.09;;;0.05;99.26
69980;BME280;57318;56.232;43.944;2022-12-24T12:17:43;98573.84;;;0.05;99.69
69980;BME280;57318;56.232;43.944;2022-12-24T12:20:30;98562.47;;;0.06;99.24
69980;BME280;57318;56.232;43.944;2022-12-24T12:26:09;98561.72;;;0.04;99.29
69980;BME280;57318;56.232;43.944;2022-12-24T12:28:46;98551.34;;;0.03;99.00
69980;BME280;57318;56.232;43.944;2022-12-24T12:33:53;98562.81;;;0.00;99.25
69980;BME280;57318;56.232;43.944;2022-12-24T12:36:27;98562.69;;;0.02;99.06
69980;BME280;57318;56.232;43.944;2022-12-24T12:38:55;98558.34;;;0.02;99.16
69980;BME280;57318;56.232;43.944;2022-12-24T12:44:07;98576.84;;;-0.03;98.92
69980;BME280;57318;56.232;43.944;2022-12-24T12:52:17;98553.28;;;-0.01;98.74
69980;BME280;57318;56.232;43.944;2022-12-24T12:55:05;98562.09;;;-0.04;98.50
69980;BME280;57318;56.232;43.944;2022-12-24T12:57:36;98551.88;;;-0.08;98.60
69980;BME280;57318;56.232;43.944;2022-12-24T13:00:05;98546.75;;;-0.10;98.73
69980;BME280;57318;56.232;43.944;2022-12-24T13:13:54;98552.03;;;-0.11;99.33
69980;BME280;57318;56.232;43.944;2022-12-24T13:16:38;98567.53;;;-0.08;99.13
69980;BME280;57318;56.232;43.944;2022-12-24T13:21:34;98572.78;;;-0.08;98.73
69980;BME280;57318;56.232;43.944;2022-12-24T13:24:15;98560.66;;;-0.09;98.80
69980;BME280;57318;56.232;43.944;2022-12-24T13:29:38;98549.19;;;-0.07;98.96
69980;BME280;57318;56.232;43.944;2022-12-24T13:32:35;98571.88;;;-0.07;98.61
69980;BME280;57318;56.232;43.944;2022-12-24T13:37:47;98550.06;;;-0.06;98.67
69980;BME280;57318;56.232;43.944;2022-12-24T13:50:37;98591.69;;;-0.03;98.55
69980;BME280;57318;56.232;43.944;2022-12-24T13:53:27;98586.38;;;-0.02;98.44
69980;BME280;57318;56.232;43.944;2022-12-24T13:58:49;98596.84;;;-0.02;98.36
69980;BME280;57318;56.232;43.944;2022-12-24T14:01:19;98575.88;;;0.00;98.29
69980;BME280;57318;56.232;43.944;2022-12-24T14:03:49;98568.09;;;-0.02;98.29
69980;BME280;57318;56.232;43.944;2022-12-24T14:06:31;98582.84;;;-0.01;98.10
69980;BME280;57318;56.232;43.944;2022-12-24T14:09:10;98595.06;;;-0.01;98.13
69980;BME280;57318;56.232;43.944;2022-12-24T14:14:28;98571.63;;;-0.03;97.97
69980;BME280;57318;56.232;43.944;2022-12-24T14:17:00;98565.56;;;-0.03;98.30
69980;BME280;57318;56.232;43.944;2022-12-24T14:19:40;98584.69;;;-0.03;97.88
69980;BME280;57318;56.232;43.944;2022-12-24T14:22:39;98553.44;;;-0.04;98.00
69980;BME280;57318;56.232;43.944;2022-12-24T14:25:16;98570.78;;;-0.03;97.90
69980;BME280;57318;56.232;43.944;2022-12-24T14:27:45;98578.56;;;-0.02;97.63
69980;BME280;57318;56.232;43.944;2022-12-24T14:30:23;98574.25;;;-0.03;97.60
69980;BME280;57318;56.232;43.944;2022-12-24T14:32:50;98569.09;;;-0.04;97.77
69980;BME280;57318;56.232;43.944;2022-12-24T14:37:48;98566.34;;;-0.01;97.58
69980;BME280;57318;56.232;43.944;2022-12-24T14:40:17;98576.84;;;-0.03;97.57
69980;BME280;57318;56.232;43.944;2022-12-24T14:48:27;98583.69;;;0.00;97.34
69980;BME280;57318;56.232;43.944;2022-12-24T14:56:30;98578.56;;;-0.02;96.74
69980;BME280;57318;56.232;43.944;2022-12-24T14:58:55;98573.31;;;-0.02;96.87
69980;BME280;57318;56.232;43.944;2022-12-24T15:01:28;98582.06;;;-0.03;96.64
69980;BME280;57318;56.232;43.944;2022-12-24T15:04:04;98582.06;;;-0.03;96.48
69980;BME280;57318;56.232;43.944;2022-12-24T15:06:33;98576.03;;;-0.03;96.61
69980;BME280;57318;56.232;43.944;2022-12-24T15:08:59;98587.31;;;-0.03;96.60
69980;BME280;57318;56.232;43.944;2022-12-24T15:11:25;98584.69;;;-0.03;96.41
69980;BME280;57318;56.232;43.944;2022-12-24T15:13:53;98577.53;;;0.01;96.42
69980;BME280;57318;56.232;43.944;2022-12-24T15:16:30;98588.81;;;0.02;96.31
69980;BME280;57318;56.232;43.944;2022-12-24T15:18:59;98561.09;;;-0.01;96.00